sensor_id;sensor_type;location;lat;lon;timestamp;temperature;humidity
12720;DHT22;6424;48.520;11.228;2023-03-23T00:02:31;10.60;99.90
12720;DHT22;6424;48.520;11.228;2023-03-23T00:05:16;10.60;99.90
12720;DHT22;6424;48.520;11.228;2023-03-23T00:07:56;10.60;99.90
12720;DHT22;6424;48.520;11.228;2023-03-23T00:10:38;10.60;99.90
12720;DHT22;6424;48.520;11.228;2023-03-23T00:13:19;10.60;99.90
12720;DHT22;6424;48.520;11.228;2023-03-23T00:16:00;10.60;99.90
12720;DHT22;6424;48.520;11.228;2023-03-23T00:18:46;10.60;99.90
12720;DHT22;6424;48.520;11.228;2023-03-23T00:21:31;10.60;99.90
12720;DHT22;6424;48.520;11.228;2023-03-23T00:24:16;10.60;99.90
12720;DHT22;6424;48.520;11.228;2023-03-23T00:26:58;10.60;99.90
12720;DHT22;6424;48.520;11.228;2023-03-23T00:29:39;10.60;99.90
12720;DHT22;6424;48.520;11.228;2023-03-23T00:32:23;10.60;99.90
12720;DHT22;6424;48.520;11.228;2023-03-23T00:35:08;10.50;99.90
12720;DHT22;6424;48.520;11.228;2023-03-23T00:37:48;10.50;99.90
12720;DHT22;6424;48.520;11.228;2023-03-23T00:40:30;10.40;99.90
12720;DHT22;6424;48.520;11.228;2023-03-23T00:43:11;10.30;99.90
12720;DHT22;6424;48.520;11.228;2023-03-23T00:45:55;10.30;99.90
12720;DHT22;6424;48.520;11.228;2023-03-23T00:48:37;10.30;99.90
12720;DHT22;6424;48.520;11.228;2023-03-23T00:51:25;10.30;99.90
12720;DHT22;6424;48.520;11.228;2023-03-23T00:54:06;10.30;99.90
12720;DHT22;6424;48.520;11.228;2023-03-23T00:56:47;10.30;99.90
12720;DHT22;6424;48.520;11.228;2023-03-23T00:59:28;10.30;99.90
12720;DHT22;6424;48.520;11.228;2023-03-23T01:02:09;10.20;99.90
12720;DHT22;6424;48.520;11.228;2023-03-23T01:04:50;10.20;99.90
12720;DHT22;6424;48.520;11.228;2023-03-23T01:07:32;10.10;99.90
12720;DHT22;6424;48.520;11.228;2023-03-23T01:10:14;10.00;99.90
12720;DHT22;6424;48.520;11.228;2023-03-23T01:12:59;9.90;99.90
12720;DHT22;6424;48.520;11.228;2023-03-23T01:15:41;9.90;99.90
12720;DHT22;6424;48.520;11.228;2023-03-23T01:18:22;9.80;99.90
12720;DHT22;6424;48.520;11.228;2023-03-23T01:21:16;9.70;99.90
12720;DHT22;6424;48.520;11.228;2023-03-23T01:23:57;9.70;99.90
12720;DHT22;6424;48.520;11.228;2023-03-23T01:26:25;9.60;99.90
12720;DHT22;6424;48.520;11.228;2023-03-23T01:29:06;9.50;99.90
12720;DHT22;6424;48.520;11.228;2023-03-23T01:31:33;9.40;99.90
12720;DHT22;6424;48.520;11.228;2023-03-23T01:34:16;9.40;99.90
12720;DHT22;6424;48.520;11.228;2023-03-23T01:36:57;9.30;99.90
12720;DHT22;6424;48.520;11.228;2023-03-23T01:39:38;9.30;99.90
12720;DHT22;6424;48.520;11.228;2023-03-23T01:42:25;9.30;99.90
12720;DHT22;6424;48.520;11.228;2023-03-23T01:45:26;9.30;99.90
12720;DHT22;6424;48.520;11.228;2023-03-23T01:48:44;9.30;99.90
12720;DHT22;6424;48.520;11.228;2023-03-23T01:51:19;9.30;99.90
12720;DHT22;6424;48.520;11.228;2023-03-23T01:54:05;9.30;99.90
12720;DHT22;6424;48.520;11.228;2023-03-23T01:56:56;9.30;99.90
12720;DHT22;6424;48.520;11.228;2023-03-23T01:59:39;9.20;99.90
12720;DHT22;6424;48.520;11.228;2023-03-23T02:02:24;9.20;99.90
12720;DHT22;6424;48.520;11.228;2023-03-23T02:05:10;9.10;99.90
12720;DHT22;6424;48.520;11.228;2023-03-23T02:07:52;9.10;99.90
12720;DHT22;6424;48.520;11.228;2023-03-23T02:10:34;9.00;99.90
12720;DHT22;6424;48.520;11.228;2023-03-23T02:13:15;9.00;99.90
12720;DHT22;6424;48.520;11.228;2023-03-23T02:22:21;9.00;99.90
12720;DHT22;6424;48.520;11.228;2023-03-23T02:25:23;9.00;99.90
12720;DHT22;6424;48.520;11.228;2023-03-23T02:28:29;9.00;99.90
12720;DHT22;6424;48.520;11.228;2023-03-23T02:37:03;9.00;99.90
12720;DHT22;6424;48.520;11.228;2023-03-23T02:39:52;9.10;99.90
12720;DHT22;6424;48.520;11.228;2023-03-23T02:42:37;9.10;99.90
12720;DHT22;6424;48.520;11.228;2023-03-23T02:45:21;9.20;99.90
12720;DHT22;6424;48.520;11.228;2023-03-23T02:48:04;9.30;99.90
12720;DHT22;6424;48.520;11.228;2023-03-23T02:50:49;9.40;99.90
12720;DHT22;6424;48.520;11.228;2023-03-23T02:53:34;9.40;99.90
12720;DHT22;6424;48.520;11.228;2023-03-23T02:56:17;9.40;99.90
12720;DHT22;6424;48.520;11.228;2023-03-23T02:58:59;9.40;99.90
12720;DHT22;6424;48.520;11.228;2023-03-23T03:04:23;9.30;99.90
12720;DHT22;6424;48.520;11.228;2023-03-23T03:09:49;9.20;99.90
12720;DHT22;6424;48.520;11.228;2023-03-23T03:21:50;9.20;99.90
12720;DHT22;6424;48.520;11.228;2023-03-23T03:24:33;9.20;99.90
12720;DHT22;6424;48.520;11.228;2023-03-23T03:27:17;9.20;99.90
12720;DHT22;6424;48.520;11.228;2023-03-23T03:30:02;9.30;99.90
12720;DHT22;6424;48.520;11.228;2023-03-23T03:32:47;9.30;99.90
12720;DHT22;6424;48.520;11.228;2023-03-23T03:35:15;9.30;99.90
12720;DHT22;6424;48.520;11.228;2023-03-23T03:37:56;9.40;99.90
12720;DHT22;6424;48.520;11.228;2023-03-23T03:40:38;9.40;99.90
12720;DHT22;6424;48.520;11.228;2023-03-23T03:43:19;9.50;99.90
12720;DHT22;6424;48.520;11.228;2023-03-23T03:46:00;9.50;99.90
12720;DHT22;6424;48.520;11.228;2023-03-23T03:48:41;9.60;99.90
12720;DHT22;6424;48.520;11.228;2023-03-23T03:51:22;9.60;99.90
12720;DHT22;6424;48.520;11.228;2023-03-23T03:53:49;9.60;99.90
12720;DHT22;6424;48.520;11.228;2023-03-23T03:56:30;9.60;99.90
12720;DHT22;6424;48.520;11.228;2023-03-23T03:59:12;9.60;99.90
12720;DHT22;6424;48.520;11.228;2023-03-23T04:01:53;9.60;99.90
12720;DHT22;6424;48.520;11.228;2023-03-23T04:04:35;9.70;99.90
12720;DHT22;6424;48.520;11.228;2023-03-23T04:07:16;9.70;99.90
12720;DHT22;6424;48.520;11.228;2023-03-23T04:09:56;9.70;99.90
12720;DHT22;6424;48.520;11.228;2023-03-23T04:12:38;9.70;99.90
12720;DHT22;6424;48.520;11.228;2023-03-23T04:15:19;9.70;99.90
12720;DHT22;6424;48.520;11.228;2023-03-23T04:18:00;9.70;99.90
12720;DHT22;6424;48.520;11.228;2023-03-23T04:20:45;9.70;99.90
12720;DHT22;6424;48.520;11.228;2023-03-23T04:23:29;9.70;99.90
12720;DHT22;6424;48.520;11.228;2023-03-23T04:25:56;9.80;99.90
12720;DHT22;6424;48.520;11.228;2023-03-23T04:28:27;9.80;99.90
12720;DHT22;6424;48.520;11.228;2023-03-23T04:31:08;9.90;99.90
12720;DHT22;6424;48.520;11.228;2023-03-23T04:33:50;9.90;99.90
12720;DHT22;6424;48.520;11.228;2023-03-23T04:36:32;10.00;99.90
12720;DHT22;6424;48.520;11.228;2023-03-23T04:39:16;10.00;99.90
12720;DHT22;6424;48.520;11.228;2023-03-23T04:41:57;10.10;99.90
12720;DHT22;6424;48.520;11.228;2023-03-23T04:44:41;10.20;99.90
12720;DHT22;6424;48.520;11.228;2023-03-23T04:47:25;10.30;99.90
12720;DHT22;6424;48.520;11.228;2023-03-23T04:50:11;10.30;99.90
12720;DHT22;6424;48.520;11.228;2023-03-23T04:52:40;10.40;99.90
12720;DHT22;6424;48.520;11.228;2023-03-23T04:55:26;10.40;99.90
12720;DHT22;6424;48.520;11.228;2023-03-23T04:58:07;10.50;99.90
12720;DHT22;6424;48.520;11.228;2023-03-23T05:00:34;10.60;99.90
12720;DHT22;6424;48.520;11.228;2023-03-23T05:03:16;10.80;99.90
12720;DHT22;6424;48.520;11.228;2023-03-23T05:05:57;10.90;99.90
12720;DHT22;6424;48.520;11.228;2023-03-23T05:08:41;11.00;99.90
12720;DHT22;6424;48.520;11.228;2023-03-23T05:11:07;11.20;99.90
12720;DHT22;6424;48.520;11.228;2023-03-23T05:13:48;11.30;99.90
12720;DHT22;6424;48.520;11.228;2023-03-23T05:16:29;11.30;99.90
12720;DHT22;6424;48.520;11.228;2023-03-23T05:19:10;11.40;99.90
12720;DHT22;6424;48.520;11.228;2023-03-23T05:21:51;11.40;99.90
12720;DHT22;6424;48.520;11.228;2023-03-23T05:24:17;11.50;99.90
12720;DHT22;6424;48.520;11.228;2023-03-23T05:27:01;11.60;99.90
12720;DHT22;6424;48.520;11.228;2023-03-23T05:29:44;11.60;99.90
12720;DHT22;6424;48.520;11.228;2023-03-23T05:32:26;11.70;99.90
12720;DHT22;6424;48.520;11.228;2023-03-23T05:35:09;11.70;99.90
12720;DHT22;6424;48.520;11.228;2023-03-23T05:37:50;11.60;99.90
12720;DHT22;6424;48.520;11.228;2023-03-23T05:40:19;11.60;99.90
12720;DHT22;6424;48.520;11.228;2023-03-23T05:43:00;11.60;99.90
12720;DHT22;6424;48.520;11.228;2023-03-23T05:45:26;11.60;99.90
12720;DHT22;6424;48.520;11.228;2023-03-23T05:48:07;11.50;99.90
12720;DHT22;6424;48.520;11.228;2023-03-23T05:50:49;11.50;99.90
12720;DHT22;6424;48.520;11.228;2023-03-23T05:53:31;11.40;99.90
12720;DHT22;6424;48.520;11.228;2023-03-23T05:56:11;11.40;99.90
12720;DHT22;6424;48.520;11.228;2023-03-23T05:58:54;11.40;99.90
12720;DHT22;6424;48.520;11.228;2023-03-23T06:01:35;11.30;99.90
12720;DHT22;6424;48.520;11.228;2023-03-23T06:04:16;11.30;99.90
12720;DHT22;6424;48.520;11.228;2023-03-23T06:06:57;11.30;99.90
12720;DHT22;6424;48.520;11.228;2023-03-23T06:09:38;11.30;99.90
12720;DHT22;6424;48.520;11.228;2023-03-23T06:12:19;11.20;99.90
12720;DHT22;6424;48.520;11.228;2023-03-23T06:15:00;11.30;99.90
12720;DHT22;6424;48.520;11.228;2023-03-23T06:17:41;11.30;99.90
12720;DHT22;6424;48.520;11.228;2023-03-23T06:20:22;11.30;99.90
12720;DHT22;6424;48.520;11.228;2023-03-23T06:23:05;11.30;99.90
12720;DHT22;6424;48.520;11.228;2023-03-23T06:25:46;11.40;99.90
12720;DHT22;6424;48.520;11.228;2023-03-23T06:28:12;11.40;99.90
12720;DHT22;6424;48.520;11.228;2023-03-23T06:30:52;11.40;99.90
12720;DHT22;6424;48.520;11.228;2023-03-23T06:33:36;11.50;99.90
12720;DHT22;6424;48.520;11.228;2023-03-23T06:36:18;11.50;99.90
12720;DHT22;6424;48.520;11.228;2023-03-23T06:38:59;11.60;99.90
12720;DHT22;6424;48.520;11.228;2023-03-23T06:41:40;11.70;99.90
12720;DHT22;6424;48.520;11.228;2023-03-23T06:44:21;11.70;99.90
12720;DHT22;6424;48.520;11.228;2023-03-23T06:47:01;11.70;99.90
12720;DHT22;6424;48.520;11.228;2023-03-23T06:49:42;11.70;99.90
12720;DHT22;6424;48.520;11.228;2023-03-23T06:52:24;11.60;99.90
12720;DHT22;6424;48.520;11.228;2023-03-23T06:55:05;11.60;99.90
12720;DHT22;6424;48.520;11.228;2023-03-23T06:57:47;11.60;99.90
12720;DHT22;6424;48.520;11.228;2023-03-23T07:00:28;11.60;99.90
12720;DHT22;6424;48.520;11.228;2023-03-23T07:03:09;11.60;99.90
12720;DHT22;6424;48.520;11.228;2023-03-23T07:05:50;11.70;99.90
12720;DHT22;6424;48.520;11.228;2023-03-23T07:08:31;11.70;99.90
12720;DHT22;6424;48.520;11.228;2023-03-23T07:11:12;11.60;99.90
12720;DHT22;6424;48.520;11.228;2023-03-23T07:13:53;11.70;99.90
12720;DHT22;6424;48.520;11.228;2023-03-23T07:16:19;11.70;99.90
12720;DHT22;6424;48.520;11.228;2023-03-23T07:19:00;11.70;99.90
12720;DHT22;6424;48.520;11.228;2023-03-23T07:21:41;11.80;99.90
12720;DHT22;6424;48.520;11.228;2023-03-23T07:24:22;11.90;99.90
12720;DHT22;6424;48.520;11.228;2023-03-23T07:27:03;12.10;99.90
12720;DHT22;6424;48.520;11.228;2023-03-23T07:29:44;12.30;99.90
12720;DHT22;6424;48.520;11.228;2023-03-23T07:32:25;12.40;99.90
12720;DHT22;6424;48.520;11.228;2023-03-23T07:35:07;12.60;99.90
12720;DHT22;6424;48.520;11.228;2023-03-23T07:37:48;12.60;99.90
12720;DHT22;6424;48.520;11.228;2023-03-23T07:40:30;12.70;99.90
12720;DHT22;6424;48.520;11.228;2023-03-23T07:42:59;12.90;99.90
12720;DHT22;6424;48.520;11.228;2023-03-23T07:45:40;13.00;99.90
12720;DHT22;6424;48.520;11.228;2023-03-23T07:48:21;13.10;99.90
12720;DHT22;6424;48.520;11.228;2023-03-23T07:51:02;13.30;99.90
12720;DHT22;6424;48.520;11.228;2023-03-23T07:53:44;13.40;99.90
12720;DHT22;6424;48.520;11.228;2023-03-23T07:56:28;13.60;99.90
12720;DHT22;6424;48.520;11.228;2023-03-23T07:59:08;13.70;99.90
12720;DHT22;6424;48.520;11.228;2023-03-23T08:01:50;13.80;99.90
12720;DHT22;6424;48.520;11.228;2023-03-23T08:04:31;14.00;99.90
12720;DHT22;6424;48.520;11.228;2023-03-23T08:07:17;14.10;99.90
12720;DHT22;6424;48.520;11.228;2023-03-23T08:09:45;14.10;99.90
12720;DHT22;6424;48.520;11.228;2023-03-23T08:12:27;14.20;99.90
12720;DHT22;6424;48.520;11.228;2023-03-23T08:15:09;14.20;99.90
12720;DHT22;6424;48.520;11.228;2023-03-23T08:17:53;14.30;99.90
12720;DHT22;6424;48.520;11.228;2023-03-23T08:20:33;14.30;99.90
12720;DHT22;6424;48.520;11.228;2023-03-23T08:23:16;14.40;99.90
12720;DHT22;6424;48.520;11.228;2023-03-23T08:25:56;14.50;99.90
12720;DHT22;6424;48.520;11.228;2023-03-23T08:28:37;14.60;99.90
12720;DHT22;6424;48.520;11.228;2023-03-23T08:31:19;14.60;99.90
12720;DHT22;6424;48.520;11.228;2023-03-23T08:34:00;14.70;99.90
12720;DHT22;6424;48.520;11.228;2023-03-23T08:36:26;14.70;99.90
12720;DHT22;6424;48.520;11.228;2023-03-23T08:39:08;14.80;99.90
12720;DHT22;6424;48.520;11.228;2023-03-23T08:41:49;14.80;99.90
12720;DHT22;6424;48.520;11.228;2023-03-23T08:44:30;15.00;99.90
12720;DHT22;6424;48.520;11.228;2023-03-23T08:47:11;15.10;99.90
12720;DHT22;6424;48.520;11.228;2023-03-23T08:49:51;15.30;99.90
12720;DHT22;6424;48.520;11.228;2023-03-23T08:52:34;15.30;99.90
12720;DHT22;6424;48.520;11.228;2023-03-23T08:55:16;15.50;99.90
12720;DHT22;6424;48.520;11.228;2023-03-23T08:57:58;15.50;99.90
12720;DHT22;6424;48.520;11.228;2023-03-23T09:00:38;15.50;99.90
12720;DHT22;6424;48.520;11.228;2023-03-23T09:03:05;15.50;99.60
12720;DHT22;6424;48.520;11.228;2023-03-23T09:05:46;15.50;99.90
12720;DHT22;6424;48.520;11.228;2023-03-23T09:08:28;15.50;99.80
12720;DHT22;6424;48.520;11.228;2023-03-23T09:11:09;15.50;99.90
12720;DHT22;6424;48.520;11.228;2023-03-23T09:13:50;15.50;99.90
12720;DHT22;6424;48.520;11.228;2023-03-23T09:16:32;15.60;99.90
12720;DHT22;6424;48.520;11.228;2023-03-23T09:19:13;15.80;99.10
12720;DHT22;6424;48.520;11.228;2023-03-23T09:21:54;15.90;99.70
12720;DHT22;6424;48.520;11.228;2023-03-23T09:24:35;16.10;99.20
12720;DHT22;6424;48.520;11.228;2023-03-23T09:27:16;16.30;97.60
12720;DHT22;6424;48.520;11.228;2023-03-23T09:29:57;16.50;97.00
12720;DHT22;6424;48.520;11.228;2023-03-23T09:32:39;16.60;96.10
12720;DHT22;6424;48.520;11.228;2023-03-23T09:35:07;16.70;96.30
12720;DHT22;6424;48.520;11.228;2023-03-23T09:37:50;16.80;96.10
12720;DHT22;6424;48.520;11.228;2023-03-23T09:43:29;16.70;94.80
12720;DHT22;6424;48.520;11.228;2023-03-23T09:46:31;16.50;94.10
12720;DHT22;6424;48.520;11.228;2023-03-23T09:49:19;16.30;94.20
12720;DHT22;6424;48.520;11.228;2023-03-23T09:52:14;16.20;94.40
12720;DHT22;6424;48.520;11.228;2023-03-23T09:54:55;16.20;94.60
12720;DHT22;6424;48.520;11.228;2023-03-23T09:58:16;16.30;94.10
12720;DHT22;6424;48.520;11.228;2023-03-23T10:01:05;16.40;94.40
12720;DHT22;6424;48.520;11.228;2023-03-23T10:03:47;16.40;94.10
12720;DHT22;6424;48.520;11.228;2023-03-23T10:06:28;16.40;94.30
12720;DHT22;6424;48.520;11.228;2023-03-23T10:09:15;16.40;94.50
12720;DHT22;6424;48.520;11.228;2023-03-23T10:15:36;16.40;94.00
12720;DHT22;6424;48.520;11.228;2023-03-23T10:18:12;16.40;93.80
12720;DHT22;6424;48.520;11.228;2023-03-23T10:20:57;16.50;94.10
12720;DHT22;6424;48.520;11.228;2023-03-23T10:24:03;16.60;93.90
12720;DHT22;6424;48.520;11.228;2023-03-23T10:27:33;16.60;93.80
12720;DHT22;6424;48.520;11.228;2023-03-23T10:32:51;16.70;93.90
12720;DHT22;6424;48.520;11.228;2023-03-23T10:35:37;16.80;93.80
12720;DHT22;6424;48.520;11.228;2023-03-23T10:38:27;16.80;93.30
12720;DHT22;6424;48.520;11.228;2023-03-23T10:41:17;16.80;93.70
12720;DHT22;6424;48.520;11.228;2023-03-23T10:43:44;16.90;93.00
12720;DHT22;6424;48.520;11.228;2023-03-23T10:46:37;16.90;93.10
12720;DHT22;6424;48.520;11.228;2023-03-23T10:49:48;16.90;93.50
12720;DHT22;6424;48.520;11.228;2023-03-23T10:55:14;17.10;93.10
12720;DHT22;6424;48.520;11.228;2023-03-23T10:57:44;17.20;92.70
12720;DHT22;6424;48.520;11.228;2023-03-23T11:00:26;17.30;92.60
12720;DHT22;6424;48.520;11.228;2023-03-23T11:03:24;17.40;92.00
12720;DHT22;6424;48.520;11.228;2023-03-23T11:06:11;17.40;91.40
12720;DHT22;6424;48.520;11.228;2023-03-23T11:08:58;17.50;92.50
12720;DHT22;6424;48.520;11.228;2023-03-23T11:11:47;17.70;92.40
12720;DHT22;6424;48.520;11.228;2023-03-23T11:14:34;17.90;91.80
12720;DHT22;6424;48.520;11.228;2023-03-23T11:17:27;18.00;90.30
12720;DHT22;6424;48.520;11.228;2023-03-23T11:20:12;18.10;91.40
12720;DHT22;6424;48.520;11.228;2023-03-23T11:22:54;18.20;90.90
12720;DHT22;6424;48.520;11.228;2023-03-23T11:25:20;18.40;91.20
12720;DHT22;6424;48.520;11.228;2023-03-23T11:28:01;18.50;90.70
12720;DHT22;6424;48.520;11.228;2023-03-23T11:30:42;18.50;91.00
12720;DHT22;6424;48.520;11.228;2023-03-23T11:33:23;18.60;90.70
12720;DHT22;6424;48.520;11.228;2023-03-23T11:36:06;18.60;89.20
12720;DHT22;6424;48.520;11.228;2023-03-23T11:38:47;18.40;89.40
12720;DHT22;6424;48.520;11.228;2023-03-23T11:41:33;18.40;90.20
12720;DHT22;6424;48.520;11.228;2023-03-23T11:44:15;18.40;89.60
12720;DHT22;6424;48.520;11.228;2023-03-23T11:50:20;18.20;90.50
12720;DHT22;6424;48.520;11.228;2023-03-23T11:53:10;18.10;90.50
12720;DHT22;6424;48.520;11.228;2023-03-23T11:58:25;17.90;90.10
12720;DHT22;6424;48.520;11.228;2023-03-23T12:13:56;17.90;90.10
12720;DHT22;6424;48.520;11.228;2023-03-23T12:34:22;17.60;90.90
12720;DHT22;6424;48.520;11.228;2023-03-23T12:37:21;17.70;91.30
12720;DHT22;6424;48.520;11.228;2023-03-23T12:43:17;17.60;90.80
12720;DHT22;6424;48.520;11.228;2023-03-23T12:55:16;17.40;91.90
12720;DHT22;6424;48.520;11.228;2023-03-23T12:58:07;17.40;91.70
12720;DHT22;6424;48.520;11.228;2023-03-23T13:01:25;17.40;92.10
12720;DHT22;6424;48.520;11.228;2023-03-23T13:04:11;17.30;91.60
12720;DHT22;6424;48.520;11.228;2023-03-23T13:06:53;17.30;91.10
12720;DHT22;6424;48.520;11.228;2023-03-23T13:12:34;17.20;92.00
12720;DHT22;6424;48.520;11.228;2023-03-23T13:15:42;17.20;92.30
12720;DHT22;6424;48.520;11.228;2023-03-23T13:18:44;17.30;92.50
12720;DHT22;6424;48.520;11.228;2023-03-23T13:21:32;17.30;92.50
12720;DHT22;6424;48.520;11.228;2023-03-23T13:24:04;17.30;91.70
12720;DHT22;6424;48.520;11.228;2023-03-23T13:26:49;17.40;92.50
12720;DHT22;6424;48.520;11.228;2023-03-23T13:29:30;17.40;92.00
12720;DHT22;6424;48.520;11.228;2023-03-23T13:32:12;17.50;92.60
12720;DHT22;6424;48.520;11.228;2023-03-23T13:34:55;17.60;92.80
12720;DHT22;6424;48.520;11.228;2023-03-23T13:37:44;17.70;92.20
12720;DHT22;6424;48.520;11.228;2023-03-23T13:40:28;17.70;92.20
12720;DHT22;6424;48.520;11.228;2023-03-23T13:43:09;17.80;94.30
12720;DHT22;6424;48.520;11.228;2023-03-23T13:45:47;17.80;95.50
12720;DHT22;6424;48.520;11.228;2023-03-23T13:48:28;17.90;94.80
12720;DHT22;6424;48.520;11.228;2023-03-23T13:54:42;17.90;92.00
12720;DHT22;6424;48.520;11.228;2023-03-23T13:57:37;17.90;92.10
12720;DHT22;6424;48.520;11.228;2023-03-23T14:08:43;18.20;91.50
12720;DHT22;6424;48.520;11.228;2023-03-23T14:11:27;18.20;92.00
12720;DHT22;6424;48.520;11.228;2023-03-23T14:14:23;18.20;91.40
12720;DHT22;6424;48.520;11.228;2023-03-23T14:17:28;18.20;91.90
12720;DHT22;6424;48.520;11.228;2023-03-23T14:20:24;18.10;91.50
12720;DHT22;6424;48.520;11.228;2023-03-23T14:22:54;18.10;91.20
12720;DHT22;6424;48.520;11.228;2023-03-23T14:25:21;18.00;90.80
12720;DHT22;6424;48.520;11.228;2023-03-23T14:27:48;17.90;90.80
12720;DHT22;6424;48.520;11.228;2023-03-23T14:30:36;17.80;90.90
12720;DHT22;6424;48.520;11.228;2023-03-23T14:33:18;17.70;91.40
12720;DHT22;6424;48.520;11.228;2023-03-23T14:36:00;17.60;92.00
12720;DHT22;6424;48.520;11.228;2023-03-23T14:38:41;17.50;91.90
12720;DHT22;6424;48.520;11.228;2023-03-23T14:41:22;17.50;92.40
12720;DHT22;6424;48.520;11.228;2023-03-23T14:44:06;17.40;92.30
12720;DHT22;6424;48.520;11.228;2023-03-23T14:46:48;17.30;92.70
12720;DHT22;6424;48.520;11.228;2023-03-23T14:49:32;17.20;92.40
12720;DHT22;6424;48.520;11.228;2023-03-23T14:52:16;17.20;93.10
12720;DHT22;6424;48.520;11.228;2023-03-23T14:55:18;17.20;93.30
12720;DHT22;6424;48.520;11.228;2023-03-23T14:58:06;17.20;93.10
12720;DHT22;6424;48.520;11.228;2023-03-23T15:01:02;17.20;93.50
12720;DHT22;6424;48.520;11.228;2023-03-23T15:04:09;17.20;93.50
12720;DHT22;6424;48.520;11.228;2023-03-23T15:06:55;17.10;92.90
12720;DHT22;6424;48.520;11.228;2023-03-23T15:09:24;17.00;93.20
12720;DHT22;6424;48.520;11.228;2023-03-23T15:12:06;17.00;93.50
12720;DHT22;6424;48.520;11.228;2023-03-23T15:14:49;17.00;93.80
12720;DHT22;6424;48.520;11.228;2023-03-23T15:17:35;16.90;94.00
12720;DHT22;6424;48.520;11.228;2023-03-23T15:20:27;16.90;93.20
12720;DHT22;6424;48.520;11.228;2023-03-23T15:23:22;16.80;93.20
12720;DHT22;6424;48.520;11.228;2023-03-23T15:26:09;16.80;93.30
12720;DHT22;6424;48.520;11.228;2023-03-23T15:29:12;16.80;94.00
12720;DHT22;6424;48.520;11.228;2023-03-23T15:31:55;16.70;93.80
12720;DHT22;6424;48.520;11.228;2023-03-23T15:34:36;16.70;94.00
12720;DHT22;6424;48.520;11.228;2023-03-23T15:37:30;16.60;94.50
12720;DHT22;6424;48.520;11.228;2023-03-23T15:40:17;16.60;94.80
12720;DHT22;6424;48.520;11.228;2023-03-23T15:43:18;16.60;95.00
12720;DHT22;6424;48.520;11.228;2023-03-23T15:46:01;16.60;94.60
12720;DHT22;6424;48.520;11.228;2023-03-23T15:49:08;16.50;95.20
12720;DHT22;6424;48.520;11.228;2023-03-23T15:51:50;16.50;94.70
12720;DHT22;6424;48.520;11.228;2023-03-23T15:54:31;16.40;94.00
12720;DHT22;6424;48.520;11.228;2023-03-23T15:57:12;16.30;94.30
12720;DHT22;6424;48.520;11.228;2023-03-23T15:59:53;16.20;94.50
12720;DHT22;6424;48.520;11.228;2023-03-23T16:02:34;16.20;94.60
12720;DHT22;6424;48.520;11.228;2023-03-23T16:05:16;16.20;94.70
12720;DHT22;6424;48.520;11.228;2023-03-23T16:07:57;16.10;95.20
12720;DHT22;6424;48.520;11.228;2023-03-23T16:10:38;16.10;95.20
12720;DHT22;6424;48.520;11.228;2023-03-23T16:13:19;16.00;95.30
12720;DHT22;6424;48.520;11.228;2023-03-23T16:16:00;16.00;95.70
12720;DHT22;6424;48.520;11.228;2023-03-23T16:18:40;15.90;96.20
12720;DHT22;6424;48.520;11.228;2023-03-23T16:21:21;15.80;96.50
12720;DHT22;6424;48.520;11.228;2023-03-23T16:24:02;15.80;96.60
12720;DHT22;6424;48.520;11.228;2023-03-23T16:26:43;15.80;96.30
12720;DHT22;6424;48.520;11.228;2023-03-23T16:29:23;15.70;96.30
12720;DHT22;6424;48.520;11.228;2023-03-23T16:31:49;15.70;96.40
12720;DHT22;6424;48.520;11.228;2023-03-23T16:34:30;15.60;96.50
12720;DHT22;6424;48.520;11.228;2023-03-23T16:37:13;15.60;96.60
12720;DHT22;6424;48.520;11.228;2023-03-23T16:39:53;15.60;96.50
12720;DHT22;6424;48.520;11.228;2023-03-23T16:42:34;15.50;96.60
12720;DHT22;6424;48.520;11.228;2023-03-23T16:45:16;15.50;97.00
12720;DHT22;6424;48.520;11.228;2023-03-23T16:47:57;15.40;97.20
12720;DHT22;6424;48.520;11.228;2023-03-23T16:50:42;15.30;97.20
12720;DHT22;6424;48.520;11.228;2023-03-23T16:53:23;15.30;97.40
12720;DHT22;6424;48.520;11.228;2023-03-23T16:56:04;15.30;97.60
12720;DHT22;6424;48.520;11.228;2023-03-23T16:58:45;15.30;97.70
12720;DHT22;6424;48.520;11.228;2023-03-23T17:01:26;15.30;98.30
12720;DHT22;6424;48.520;11.228;2023-03-23T17:04:06;15.20;98.40
12720;DHT22;6424;48.520;11.228;2023-03-23T17:06:47;15.20;98.60
12720;DHT22;6424;48.520;11.228;2023-03-23T17:09:28;15.10;98.80
12720;DHT22;6424;48.520;11.228;2023-03-23T17:12:09;15.10;99.20
12720;DHT22;6424;48.520;11.228;2023-03-23T17:14:35;15.10;99.70
12720;DHT22;6424;48.520;11.228;2023-03-23T17:17:16;15.10;99.70
12720;DHT22;6424;48.520;11.228;2023-03-23T17:19:57;15.00;99.90
12720;DHT22;6424;48.520;11.228;2023-03-23T17:22:39;15.00;99.90
12720;DHT22;6424;48.520;11.228;2023-03-23T17:25:20;15.00;99.90
12720;DHT22;6424;48.520;11.228;2023-03-23T17:28:00;14.90;99.90
12720;DHT22;6424;48.520;11.228;2023-03-23T17:30:43;14.90;99.90
12720;DHT22;6424;48.520;11.228;2023-03-23T17:33:23;14.80;99.90
12720;DHT22;6424;48.520;11.228;2023-03-23T17:35:49;14.80;99.90
12720;DHT22;6424;48.520;11.228;2023-03-23T17:38:31;14.70;99.90
12720;DHT22;6424;48.520;11.228;2023-03-23T17:41:11;14.70;99.90
12720;DHT22;6424;48.520;11.228;2023-03-23T17:43:52;14.70;99.90
12720;DHT22;6424;48.520;11.228;2023-03-23T17:46:33;14.60;99.90
12720;DHT22;6424;48.520;11.228;2023-03-23T17:49:14;14.60;99.90
12720;DHT22;6424;48.520;11.228;2023-03-23T17:51:58;14.50;99.90
12720;DHT22;6424;48.520;11.228;2023-03-23T17:54:39;14.50;99.90
12720;DHT22;6424;48.520;11.228;2023-03-23T17:57:20;14.50;99.90
12720;DHT22;6424;48.520;11.228;2023-03-23T18:00:02;14.40;99.90
12720;DHT22;6424;48.520;11.228;2023-03-23T18:02:43;14.40;99.90
12720;DHT22;6424;48.520;11.228;2023-03-23T18:05:24;14.40;99.90
12720;DHT22;6424;48.520;11.228;2023-03-23T18:08:07;14.40;99.90
12720;DHT22;6424;48.520;11.228;2023-03-23T18:10:48;14.40;99.90
12720;DHT22;6424;48.520;11.228;2023-03-23T18:13:33;14.30;99.90
12720;DHT22;6424;48.520;11.228;2023-03-23T18:16:14;14.30;99.90
12720;DHT22;6424;48.520;11.228;2023-03-23T18:18:55;14.40;99.90
12720;DHT22;6424;48.520;11.228;2023-03-23T18:21:36;14.30;99.90
12720;DHT22;6424;48.520;11.228;2023-03-23T18:24:16;14.30;99.90
12720;DHT22;6424;48.520;11.228;2023-03-23T18:26:57;14.30;99.90
12720;DHT22;6424;48.520;11.228;2023-03-23T18:29:24;14.30;99.90
12720;DHT22;6424;48.520;11.228;2023-03-23T18:32:05;14.30;99.90
12720;DHT22;6424;48.520;11.228;2023-03-23T18:34:33;14.30;99.90
12720;DHT22;6424;48.520;11.228;2023-03-23T18:37:13;14.30;99.90
12720;DHT22;6424;48.520;11.228;2023-03-23T18:39:54;14.20;99.90
12720;DHT22;6424;48.520;11.228;2023-03-23T18:42:37;14.20;99.90
12720;DHT22;6424;48.520;11.228;2023-03-23T18:45:18;14.20;99.90
12720;DHT22;6424;48.520;11.228;2023-03-23T18:47:59;14.20;99.90
12720;DHT22;6424;48.520;11.228;2023-03-23T18:50:39;14.20;99.90
12720;DHT22;6424;48.520;11.228;2023-03-23T18:53:21;14.20;99.90